Data for 01/26/2010

Time Sea-Level Adjusted Pressure Absolute Pressure Temperature Relative Humidity Dew Point   
(mb) (inHg) (mb) (inHg) (C) (F) (%) (C) (F)
00:05 1015 29.97 844 24.92 -6.3 20.7 92 -7.4 18.8
00:10 1015 29.97 844 24.92 -6.2 20.9 93 -7.2 19
00:15 1015 29.97 844 24.92 -5.9 21.4 91 -7.1 19.1
00:20 1015 29.97 844 24.92 -6.1 20.9 89 -7.6 18.3
00:25 1015 29.97 844 24.92 -6.7 19.9 91 -7.9 17.8
00:30 1015 29.97 844 24.92 -6.8 19.7 93 -7.8 17.9
00:35 1015 29.97 844 24.92 -6.4 20.5 91 -7.6 18.3
00:40 1015 29.97 844 24.92 -6.3 20.7 91 -7.5 18.5
00:45 1015 29.97 844 24.92 -6.1 21 91 -7.3 18.8
00:50 1015 29.97 844 24.92 -6 21.1 90 -7.4 18.7
00:55 1015 29.97 844 24.92 -6.3 20.7 92 -7.4 18.7
01:00 1015 29.97 844 24.92 -6.1 21 92 -7.2 19
01:05 1015 29.97 844 24.92 -6 21.2 91 -7.2 19
01:10 1014 29.94 844 24.92 -6.3 20.7 92 -7.4 18.7
01:15 1014 29.94 844 24.92 -6.4 20.5 92 -7.4 18.6
01:20 1014 29.94 844 24.92 -6 21.3 91 -7.2 19
01:25 1014 29.94 844 24.92 -5.7 21.8 89 -7.2 19
01:30 1014 29.94 844 24.92 -5.7 21.8 89 -7.2 19.1
01:35 1014 29.94 844 24.92 -5.8 21.6 90 -7.2 19.1
01:40 1014 29.94 843 24.89 -5.8 21.6 89 -7.3 18.9
01:45 1014 29.94 843 24.89 -5.9 21.4 91 -7.2 19.1
01:50 1014 29.94 843 24.89 -5.8 21.5 90 -7.3 18.9
01:55 1014 29.94 843 24.89 -5.9 21.5 89 -7.4 18.7
02:00 1014 29.94 843 24.89 -5.7 21.7 89 -7.3 18.8
02:05 1014 29.94 843 24.89 -5.8 21.5 89 -7.4 18.7
02:10 1014 29.94 843 24.89 -6 21.2 88 -7.6 18.3
02:15 1014 29.94 843 24.89 -6.2 20.9 90 -7.6 18.3
02:20 1014 29.94 843 24.89 -6.1 20.9 90 -7.5 18.6
02:25 1014 29.94 843 24.89 -5.6 21.9 90 -7 19.3
02:30 1014 29.94 843 24.89 -5.3 22.4 89 -6.9 19.6
02:35 1014 29.94 843 24.89 -5.2 22.7 88 -6.9 19.6
02:40 1014 29.94 843 24.89 -5.1 22.8 87 -6.9 19.6
02:45 1014 29.94 843 24.89 -4.8 23.4 85 -6.9 19.6
02:50 1014 29.94 843 24.89 -4.8 23.4 85 -6.9 19.6
02:55 1014 29.94 843 24.89 -4.8 23.3 85 -7 19.5
03:00 1014 29.94 843 24.89 -4.8 23.4 86 -6.8 19.8
03:05 1014 29.94 843 24.89 -4.8 23.4 85 -6.9 19.5
03:10 1014 29.94 843 24.89 -5 23 86 -7 19.4
03:15 1014 29.94 843 24.89 -5 23 87 -6.9 19.5
03:20 1014 29.94 843 24.89 -4.8 23.3 85 -6.9 19.5
03:25 1014 29.94 843 24.89 -5 23.1 86 -7 19.4
03:30 1014 29.94 843 24.89 -5.1 22.9 86 -7.1 19.2
03:35 1014 29.94 843 24.89 -5 22.9 86 -7.1 19.2
03:40 1014 29.94 843 24.89 -5.2 22.6 86 -7.2 19
03:45 1014 29.94 843 24.89 -5.5 22 87 -7.4 18.7
03:50 1014 29.94 843 24.89 -5.8 21.6 88 -7.5 18.5
03:55 1014 29.94 843 24.89 -5.9 21.4 88 -7.6 18.4
04:00 1014 29.94 843 24.89 -6 21.3 88 -7.6 18.4
04:05 1014 29.94 843 24.89 -6 21.2 89 -7.5 18.5
04:10 1014 29.94 843 24.89 -6.1 21.1 89 -7.5 18.4
04:15 1014 29.94 843 24.89 -6 21.2 88 -7.7 18.2
04:20 1014 29.94 843 24.89 -6.1 21 89 -7.6 18.2
04:25 1014 29.94 843 24.89 -6.2 20.8 92 -7.3 18.8
04:30 1014 29.94 843 24.89 -5.9 21.3 90 -7.4 18.8
04:35 1014 29.94 843 24.89 -6.3 20.7 90 -7.6 18.3
04:40 1014 29.94 843 24.89 -6.4 20.6 90 -7.7 18.1
04:45 1014 29.94 843 24.89 -6.6 20.2 91 -7.9 17.8
04:50 1014 29.94 843 24.89 -6.8 19.8 90 -8.2 17.3
04:55 1014 29.94 843 24.89 -7 19.3 93 -8 17.6
05:00 1014 29.94 843 24.89 -6.5 20.3 92 -7.6 18.3
05:05 1014 29.94 843 24.89 -6.3 20.6 92 -7.5 18.5
05:10 1014 29.94 843 24.89 -6.4 20.6 93 -7.4 18.7
05:15 1014 29.94 843 24.89 -5.7 21.8 91 -6.9 19.5
05:20 1014 29.94 843 24.89 -5.3 22.5 89 -6.8 19.7
05:25 1014 29.94 843 24.89 -5.3 22.5 88 -6.9 19.5
05:30 1014 29.94 843 24.89 -5.2 22.6 88 -6.9 19.5
05:35 1014 29.94 843 24.89 -5 23 87 -6.9 19.6
05:40 1014 29.94 843 24.89 -4.9 23.2 87 -6.8 19.8
05:45 1014 29.94 843 24.89 -4.9 23.1 87 -6.8 19.8
05:50 1014 29.94 843 24.89 -5.2 22.7 88 -6.9 19.6
05:55 1013 29.91 843 24.89 -5.2 22.6 89 -6.8 19.7
06:00 1013 29.91 843 24.89 -5 23.1 88 -6.7 19.9
06:05 1013 29.91 843 24.89 -4.8 23.4 87 -6.5 20.2
06:10 1013 29.91 843 24.89 -4.6 23.7 86 -6.5 20.3
06:15 1013 29.91 842 24.86 -4.6 23.7 87 -6.5 20.3
06:20 1013 29.91 842 24.86 -4.7 23.6 86 -6.7 20
06:25 1013 29.91 842 24.86 -4.8 23.3 87 -6.7 19.9
06:30 1013 29.91 842 24.86 -4.8 23.3 88 -6.6 20.1
06:35 1013 29.91 842 24.86 -4.6 23.7 87 -6.5 20.3
06:40 1013 29.91 842 24.86 -4.3 24.2 85 -6.5 20.3
06:45 1013 29.91 842 24.86 -4.6 23.6 88 -6.4 20.5
06:50 1013 29.91 842 24.86 -5 23.1 88 -6.6 20.1
06:55 1013 29.91 842 24.86 -4.6 23.7 87 -6.5 20.4
07:00 1013 29.91 842 24.86 -4.5 23.8 87 -6.4 20.4
07:05 1013 29.91 842 24.86 -4.4 24 86 -6.4 20.5
07:10 1013 29.91 842 24.86 -4.4 24.1 86 -6.4 20.5
07:15 1013 29.91 842 24.86 -4.4 24.1 86 -6.4 20.5
07:20 1013 29.91 842 24.86 -4.6 23.7 86 -6.6 20.2
07:25 1013 29.91 842 24.86 -5.2 22.6 89 -6.8 19.8
07:30 1013 29.91 842 24.86 -5.4 22.2 90 -6.9 19.6
07:35 1013 29.91 842 24.86 -5.5 22.2 90 -6.8 19.7
07:40 1013 29.91 842 24.86 -5.5 22.1 91 -6.8 19.8
07:45 1013 29.91 842 24.86 -5.5 22 91 -6.8 19.8
07:50 1013 29.91 842 24.86 -5.4 22.3 91 -6.6 20.1
07:55 1013 29.91 842 24.86 -5.2 22.7 91 -6.5 20.3
08:00 1013 29.91 842 24.86 -5 23 89 -6.6 20.2
08:05 1013 29.91 842 24.86 -5 22.9 89 -6.6 20.2
08:10 1013 29.91 842 24.86 -5.2 22.6 89 -6.8 19.8
08:15 1013 29.91 842 24.86 -5.2 22.6 90 -6.6 20.1
08:20 1013 29.91 842 24.86 -5 23 88 -6.6 20
08:25 1013 29.91 842 24.86 -5.2 22.7 89 -6.7 19.9
08:30 1013 29.91 842 24.86 -5.4 22.2 90 -6.8 19.8
08:35 1013 29.91 842 24.86 -5.3 22.5 90 -6.6 20
08:40 1013 29.91 843 24.89 -4.9 23.3 88 -6.5 20.3
08:45 1013 29.91 843 24.89 -4.7 23.5 87 -6.5 20.3
08:50 1013 29.91 842 24.86 -4.8 23.4 88 -6.5 20.3
08:55 1013 29.91 842 24.86 -4.7 23.5 88 -6.4 20.4
09:00 1013 29.91 842 24.86 -4.4 24.1 86 -6.4 20.5
09:05 1013 29.91 842 24.86 -4.2 24.4 86 -6.3 20.7
09:10 1013 29.91 843 24.89 -4.1 24.6 85 -6.3 20.7
09:15 1013 29.91 843 24.89 -3.9 25 84 -6.2 20.9
09:20 1013 29.91 843 24.89 -3.7 25.4 84 -6 21.2
09:25 1014 29.94 843 24.89 -3.4 25.8 84 -5.8 21.5
09:30 1014 29.94 843 24.89 -3.2 26.2 83 -5.7 21.8
09:35 1014 29.94 843 24.89 -3.2 26.3 82 -5.8 21.5
09:40 1014 29.94 843 24.89 -3.1 26.5 81 -5.8 21.5
09:45 1014 29.94 843 24.89 -2.9 26.7 81 -5.7 21.7
09:50 1014 29.94 843 24.89 -2.9 26.8 82 -5.6 21.8
09:55 1014 29.94 843 24.89 -2.8 27 80 -5.7 21.7
10:00 1014 29.94 843 24.89 -2.6 27.3 80 -5.6 21.9
10:05 1014 29.94 843 24.89 -2.3 27.8 77 -5.8 21.5
10:10 1014 29.94 843 24.89 -2 28.4 76 -5.7 21.8
10:15 1014 29.94 843 24.89 -1.9 28.6 76 -5.5 22
10:20 1014 29.94 843 24.89 -1.9 28.6 75 -5.7 21.7
10:25 1014 29.94 843 24.89 -1.6 29 77 -5.2 22.7
10:30 1014 29.94 843 24.89 -1.8 28.7 77 -5.4 22.3
10:35 1014 29.94 843 24.89 -1.4 29.5 76 -5 22.9
10:40 1014 29.94 843 24.89 -1.2 29.8 77 -4.8 23.3
10:45 1014 29.94 843 24.89 -1.2 29.9 78 -4.6 23.8
10:50 1014 29.94 843 24.89 -1.3 29.7 79 -4.5 23.9
10:55 1014 29.94 843 24.89 -1.4 29.5 79 -4.5 23.8
11:00 1014 29.94 843 24.89 -1.6 29.1 80 -4.5 23.8
11:05 1014 29.94 843 24.89 -1.8 28.8 80 -4.9 23.3
11:10 1014 29.94 843 24.89 -2.1 28.2 81 -4.9 23.2
11:15 1014 29.94 843 24.89 -2.2 28.1 81 -5 23
11:20 1014 29.94 843 24.89 -2.2 28 81 -5 23
11:25 1014 29.94 843 24.89 -2.2 28 81 -5.1 22.8
11:30 1014 29.94 843 24.89 -2.2 28 81 -5 23
11:35 1014 29.94 843 24.89 -2.3 27.9 81 -5 22.9
11:40 1014 29.94 843 24.89 -2.1 28.2 81 -5 23
11:45 1014 29.94 843 24.89 -2.2 28.1 82 -4.9 23.1
11:50 1014 29.94 843 24.89 -2.1 28.1 80 -5.1 22.8
11:55 1014 29.94 843 24.89 -2.4 27.8 80 -5.3 22.5
12:00 1014 29.94 843 24.89 -2.4 27.7 81 -5.2 22.7
12:05 1014 29.94 843 24.89 -2.5 27.5 82 -5.2 22.6
12:10 1014 29.94 843 24.89 -2.8 27 83 -5.4 22.4
12:15 1014 29.94 843 24.89 -3.2 26.3 84 -5.6 22
12:20 1014 29.94 843 24.89 -3.2 26.3 83 -5.6 21.9
12:25 1014 29.94 843 24.89 -3.1 26.5 83 -5.6 22
12:30 1014 29.94 843 24.89 -3 26.6 83 -5.4 22.2
12:35 1013 29.91 843 24.89 -3 26.6 83 -5.5 22
12:40 1013 29.91 843 24.89 -3.1 26.4 82 -5.8 21.6
12:45 1013 29.91 843 24.89 -3.3 26.1 84 -5.6 21.9
12:50 1013 29.91 843 24.89 -3.1 26.3 84 -5.5 22
12:55 1013 29.91 843 24.89 -3 26.6 84 -5.4 22.3
13:00 1013 29.91 842 24.86 -3 26.7 83 -5.5 22.1
13:05 1013 29.91 842 24.86 -3 26.6 83 -5.6 22
13:10 1013 29.91 842 24.86 -3.1 26.5 83 -5.6 22
13:15 1013 29.91 842 24.86 -3.3 26.1 85 -5.5 22.1
13:20 1013 29.91 842 24.86 -3.2 26.2 84 -5.6 22
13:25 1013 29.91 842 24.86 -3 26.6 83 -5.5 22.1
13:30 1013 29.91 842 24.86 -2.9 26.7 83 -5.5 22.1
13:35 1013 29.91 842 24.86 -3 26.6 82 -5.6 21.9
13:40 1013 29.91 842 24.86 -3.1 26.5 84 -5.4 22.2
13:45 1013 29.91 842 24.86 -2.8 26.9 82 -5.4 22.2
13:50 1013 29.91 842 24.86 -2.8 26.9 83 -5.4 22.3
13:55 1013 29.91 842 24.86 -2.7 27.1 82 -5.4 22.3
14:00 1013 29.91 842 24.86 -2.9 26.8 82 -5.5 22.1
14:05 1013 29.91 842 24.86 -3.8 25.1 86 -5.9 21.5
14:10 1013 29.91 842 24.86 -4.3 24.3 87 -6.1 21
14:15 1013 29.91 842 24.86 -4.3 24.3 88 -6 21.3
14:20 1013 29.91 842 24.86 -4.1 24.7 88 -5.7 21.8
14:25 1013 29.91 842 24.86 -3.7 25.4 86 -5.7 21.7
14:30 1013 29.91 842 24.86 -4 24.8 88 -5.6 21.8
14:35 1013 29.91 842 24.86 -3.9 24.9 88 -5.6 21.8
14:40 1013 29.91 842 24.86 -3.9 24.9 89 -5.5 22
14:45 1013 29.91 843 24.89 -3.6 25.5 88 -5.3 22.4
14:50 1013 29.91 843 24.89 -3.5 25.8 87 -5.3 22.4
14:55 1013 29.91 843 24.89 -3.6 25.5 89 -5.2 22.7
15:00 1013 29.91 843 24.89 -3 26.6 85 -5.2 22.6
15:05 1013 29.91 843 24.89 -3 26.6 87 -4.9 23.2
15:10 1013 29.91 843 24.89 -2.9 26.7 87 -4.9 23.2
15:15 1014 29.94 843 24.89 -2.6 27.3 86 -4.6 23.7
15:20 1014 29.94 843 24.89 -2.4 27.7 83 -4.8 23.3
15:25 1014 29.94 843 24.89 -2.5 27.5 84 -4.9 23.2
15:30 1014 29.94 843 24.89 -2.7 27.1 83 -5.2 22.6
15:35 1014 29.94 843 24.89 -3.3 26.1 85 -5.4 22.2
15:40 1014 29.94 843 24.89 -3.6 25.5 85 -5.8 21.6
15:45 1014 29.94 843 24.89 -3.6 25.5 82 -6.3 20.7
15:50 1014 29.94 843 24.89 -3.9 25 82 -6.4 20.4
15:55 1014 29.94 843 24.89 -4 24.9 81 -6.8 19.7
16:00 1014 29.94 843 24.89 -4.2 24.4 81 -7.1 19.3
16:05 1014 29.94 843 24.89 -4.4 24.1 81 -7.1 19.2
16:10 1014 29.94 843 24.89 -4.4 24.1 80 -7.3 18.8
16:15 1014 29.94 843 24.89 -4.7 23.6 82 -7.3 18.9
16:20 1014 29.94 843 24.89 -4.8 23.3 82 -7.5 18.6
16:25 1014 29.94 843 24.89 -5 23.1 83 -7.4 18.7
16:30 1014 29.94 843 24.89 -4.9 23.1 86 -6.9 19.6
16:35 1014 29.94 843 24.89 -4.8 23.3 91 -6.1 21
16:40 1014 29.94 843 24.89 -4.7 23.6 91 -5.9 21.3
16:45 1014 29.94 843 24.89 -4.8 23.4 92 -5.9 21.4
16:50 1014 29.94 843 24.89 -4.9 23.1 93 -5.9 21.4
16:55 1014 29.94 843 24.89 -4.8 23.3 93 -5.8 21.5
17:00 1014 29.94 843 24.89 -4.7 23.6 91 -6 21.3
17:05 1014 29.94 843 24.89 -4.9 23.2 93 -5.9 21.3
17:10 1014 29.94 843 24.89 -5 23 91 -6.2 20.9
17:15 1014 29.94 843 24.89 -5.1 22.8 90 -6.5 20.4
17:20 1014 29.94 843 24.89 -5.1 22.8 90 -6.5 20.2
17:25 1014 29.94 843 24.89 -5.3 22.5 91 -6.5 20.3
17:30 1014 29.94 843 24.89 -5.3 22.5 89 -6.8 19.8
17:35 1014 29.94 843 24.89 -5.5 22.1 89 -7.1 19.3
17:40 1014 29.94 843 24.89 -5.7 21.7 90 -7.2 19.1
17:45 1014 29.94 843 24.89 -5.8 21.5 88 -7.5 18.5
17:50 1014 29.94 843 24.89 -6 21.2 89 -7.6 18.4
17:55 1014 29.94 843 24.89 -6.2 20.9 89 -7.7 18.2
18:00 1014 29.94 843 24.89 -6.2 20.8 90 -7.5 18.4
18:05 1014 29.94 843 24.89 -6.1 20.9 90 -7.5 18.5
18:10 1014 29.94 843 24.89 -6.1 21 90 -7.5 18.5
18:15 1014 29.94 843 24.89 -6.1 21.1 89 -7.6 18.3
18:20 1014 29.94 844 24.92 -6.3 20.7 90 -7.6 18.3
18:25 1014 29.94 844 24.92 -6.2 20.8 90 -7.6 18.3
18:30 1014 29.94 844 24.92 -6.3 20.6 89 -7.8 17.9
18:35 1014 29.94 844 24.92 -6.4 20.6 89 -7.9 17.8
18:40 1014 29.94 844 24.92 -6.4 20.4 90 -7.8 17.9
18:45 1014 29.94 844 24.92 -6.5 20.4 89 -7.9 17.7
18:50 1014 29.94 844 24.92 -6.5 20.3 90 -7.9 17.8
18:55 1015 29.97 844 24.92 -6.5 20.4 91 -7.8 18
19:00 1015 29.97 844 24.92 -6.3 20.7 90 -7.6 18.3
19:05 1015 29.97 844 24.92 -6.3 20.7 91 -7.6 18.3
19:10 1015 29.97 844 24.92 -6.3 20.7 91 -7.6 18.4
19:15 1015 29.97 844 24.92 -6.3 20.6 89 -7.8 17.9
19:20 1015 29.97 844 24.92 -6.3 20.6 89 -7.9 17.8
19:25 1015 29.97 844 24.92 -6.4 20.4 89 -7.9 17.7
19:30 1015 29.97 844 24.92 -6.5 20.4 90 -7.8 17.9
19:35 1015 29.97 844 24.92 -6.4 20.4 90 -7.8 17.9
19:40 1015 29.97 844 24.92 -6.4 20.4 92 -7.5 18.5
19:45 1015 29.97 844 24.92 -6.2 20.9 92 -7.3 18.8
19:50 1015 29.97 844 24.92 -6 21.1 91 -7.3 18.9
19:55 1015 29.97 844 24.92 -6 21.2 90 -7.4 18.8
20:00 1015 29.97 844 24.92 -6 21.1 90 -7.4 18.6
20:05 1015 29.97 844 24.92 -6 21.2 89 -7.5 18.6
20:10 1015 29.97 844 24.92 -6.1 21.1 90 -7.5 18.5
20:15 1015 29.97 844 24.92 -6.1 20.9 90 -7.6 18.4
20:20 1015 29.97 844 24.92 -6.3 20.6 91 -7.6 18.4
20:25 1015 29.97 844 24.92 -6.3 20.7 91 -7.5 18.5
20:30 1015 29.97 844 24.92 -6.2 20.8 90 -7.6 18.4
20:35 1015 29.97 844 24.92 -6.3 20.6 90 -7.7 18.1
20:40 1015 29.97 844 24.92 -6.4 20.5 90 -7.7 18.1
20:45 1015 29.97 844 24.92 -6.5 20.4 91 -7.8 18
20:50 1015 29.97 844 24.92 -6.5 20.3 90 -7.8 17.9
20:55 1015 29.97 844 24.92 -6.6 20.2 90 -7.9 17.8
21:00 1015 29.97 844 24.92 -6.6 20 89 -8.1 17.4
21:05 1015 29.97 844 24.92 -6.8 19.7 90 -8.2 17.2
21:10 1015 29.97 845 24.95 -6.9 19.6 89 -8.4 16.9
21:15 1015 29.97 845 24.95 -7 19.5 90 -8.4 16.9
21:20 1015 29.97 845 24.95 -7 19.4 90 -8.3 17
21:25 1016 30 845 24.95 -7 19.4 90 -8.4 16.9
21:30 1016 30 845 24.95 -7 19.4 90 -8.4 16.9
21:35 1016 30 845 24.95 -7 19.4 90 -8.3 17
21:40 1016 30 845 24.95 -7 19.4 90 -8.3 17
21:45 1016 30 845 24.95 -6.9 19.5 90 -8.3 17.1
21:50 1016 30 845 24.95 -6.9 19.5 90 -8.3 17
21:55 1016 30 845 24.95 -7.1 19.2 91 -8.4 17
22:00 1016 30 845 24.95 -7.2 19.1 91 -8.4 16.8
22:05 1016 30 845 24.95 -7.1 19.2 91 -8.4 17
22:10 1016 30 845 24.95 -7 19.3 90 -8.4 16.8
22:15 1016 30 845 24.95 -7.1 19.3 89 -8.5 16.6
22:20 1016 30 845 24.95 -7.1 19.2 89 -8.6 16.5
22:25 1016 30 845 24.95 -7.1 19.2 90 -8.5 16.6
22:30 1016 30 845 24.95 -7.1 19.2 89 -8.7 16.3
22:35 1016 30 845 24.95 -7.2 19 89 -8.8 16.2
22:40 1016 30 845 24.95 -7.3 18.9 89 -8.7 16.3
22:45 1016 30 845 24.95 -7.3 19 89 -8.7 16.3
22:50 1016 30 845 24.95 -7.3 18.9 89 -8.8 16.2
22:55 1016 30 845 24.95 -7.4 18.7 89 -8.9 16
23:00 1016 30 845 24.95 -7.4 18.6 89 -8.9 16
23:05 1016 30 845 24.95 -7.4 18.7 89 -8.9 16
23:10 1016 30 845 24.95 -7.4 18.8 89 -8.9 15.9
23:15 1016 30 846 24.98 -7.4 18.7 89 -8.9 16
23:20 1016 30 846 24.98 -7.5 18.6 90 -8.9 16.1
23:25 1016 30 846 24.98 -7.5 18.6 89 -9 15.9
23:30 1016 30 846 24.98 -7.5 18.6 89 -9.1 15.7
23:35 1016 30 846 24.98 -7.5 18.5 89 -9 15.8
23:40 1017 30.03 846 24.98 -7.5 18.4 89 -9 15.7
23:45 1017 30.03 846 24.98 -7.5 18.5 89 -9 15.8
23:50 1017 30.03 846 24.98 -7.5 18.5 89 -9 15.8
23:55 1017 30.03 846 24.98 -7.5 18.5 89 -9 15.8
24:00 1017 30.03 846 24.98 -7.6 18.4 88 -9.2 15.5